LERS/REU METAR and TAF weather

Enter ICAO airport designator
Station Type Date Time Source
LERS METAR 2022/11/30 16:30 UTC NOAA

LERS 301630Z 14002KT 9999 FEW025 13/08 Q1015


Station Type Date Time Source
LERS Decoded METAR 2022/11/30 16:30 UTC NOAA

Reus / Aeropuerto, Spain (LERS) 41-09N 001-10E 76M
Nov 30, 2022 - 11:30 AM EST / 2022.11.30 1630 UTC
Wind: from the SE (140 degrees) at 2 MPH (2 KT):0
Visibility: greater than 7 mile(s):0
Sky conditions: mostly clear
Temperature: 55 F (13 C)
Dew Point: 46 F (8 C)
Relative Humidity: 71%
Pressure (altimeter): 29.97 in. Hg (1015 hPa)
ob: LERS 301630Z 14002KT 9999 FEW025 13/08 Q1015
cycle: 16

Station Type Date Time Source
LERS TAF 2022/11/30 15:30 UTC NOAA

TAF LERS 301400Z 3015/0115 VRB04KT 9999 SCT030 TX13/0112Z TN05/0105Z
BECMG 3021/3024 03010KT PROB40
TEMPO 3020/0114 3000 RA FEW020TCU
TEMPO 0111/0115 09008KT

Example: see airport list